Time;durP1;ratioP1;P1;durP2;ratioP2;P2;SDS_P1;SDS_P2;PMS_P1;PMS_P2;Temp;Humidity;BMP_temperature;BMP_pressure;BME280_temperature;BME280_humidity;BME280_pressure;Samples;Min_cycle;Max_cycle;Signal;HPM_P1;HPM_P2
2023/12/16 00:02:00;;;;;;;8.98;2.65;;;;;;;;;;5014720;28;20194;-73
2023/12/16 00:04:25;;;;;;;10.85;3.08;;;;;;;;;;5006966;28;20193;-73
2023/12/16 00:06:51;;;;;;;12.52;3.08;;;;;;;;;;5004444;28;20661;-73
2023/12/16 00:09:17;;;;;;;12.85;2.72;;;;;;;;;;5020615;28;20289;-73
2023/12/16 00:11:43;;;;;;;13.48;2.58;;;;;;;;;;5024679;28;20313;-73
2023/12/16 00:14:08;;;;;;;11.98;2.40;;;;;;;;;;5010244;28;20222;-73
2023/12/16 00:16:33;;;;;;;16.05;3.45;;;;;;;;;;5025888;28;20571;-73
2023/12/16 00:18:59;;;;;;;11.80;2.70;;;;;;;;;;5007038;28;20202;-73
2023/12/16 00:21:24;;;;;;;17.52;3.35;;;;;;;;;;5027107;28;20293;-73
2023/12/16 00:23:50;;;;;;;13.93;2.70;;;;;;;;;;5010709;28;20186;-73
2023/12/16 00:26:15;;;;;;;13.07;3.22;;;;;;;;;;5009300;28;20191;-73
2023/12/16 00:28:40;;;;;;;14.40;3.08;;;;;;;;;;4996689;28;20220;-73
2023/12/16 00:31:06;;;;;;;10.38;2.72;;;;;;;;;;5002247;28;20178;-73
2023/12/16 00:33:31;;;;;;;14.05;3.45;;;;;;;;;;5027485;28;20215;-73
2023/12/16 00:35:57;;;;;;;11.15;3.08;;;;;;;;;;5028429;28;20229;-73
2023/12/16 00:38:22;;;;;;;11.43;3.30;;;;;;;;;;5028370;28;20230;-73
2023/12/16 00:40:47;;;;;;;13.48;2.90;;;;;;;;;;5008309;28;20190;-73
2023/12/16 00:43:13;;;;;;;11.88;2.90;;;;;;;;;;5010806;28;20225;-73
2023/12/16 00:45:38;;;;;;;11.13;3.28;;;;;;;;;;5028083;28;20194;-73
2023/12/16 00:48:04;;;;;;;15.35;2.80;;;;;;;;;;5009684;28;20213;-73
2023/12/16 00:50:29;;;;;;;15.13;2.55;;;;;;;;;;5025533;28;20687;-73
2023/12/16 00:52:55;;;;;;;12.90;3.20;;;;;;;;;;5007418;28;20234;-73
2023/12/16 00:55:20;;;;;;;14.70;2.83;;;;;;;;;;5026544;28;20185;-73
2023/12/16 00:57:45;;;;;;;16.92;3.13;;;;;;;;;;4993438;28;20233;-72
2023/12/16 01:00:11;;;;;;;12.68;2.50;;;;;;;;;;5008947;28;20654;-72
2023/12/16 01:02:37;;;;;;;12.02;2.47;;;;;;;;;;5007591;28;20570;-72
2023/12/16 01:05:03;;;;;;;16.92;3.58;;;;;;;;;;5027962;28;20186;-72
2023/12/16 01:07:29;;;;;;;11.25;2.90;;;;;;;;;;5004425;28;20190;-72
2023/12/16 01:09:54;;;;;;;18.77;2.95;;;;;;;;;;5023918;28;20217;-72
2023/12/16 01:12:19;;;;;;;10.50;3.10;;;;;;;;;;5025208;28;20222;-72
2023/12/16 01:14:45;;;;;;;13.82;3.03;;;;;;;;;;5010986;28;20672;-72
2023/12/16 01:17:10;;;;;;;12.20;2.95;;;;;;;;;;5027065;28;20186;-72
2023/12/16 01:19:36;;;;;;;9.18;2.78;;;;;;;;;;5026137;28;20229;-72
2023/12/16 01:22:01;;;;;;;18.90;3.33;;;;;;;;;;5015261;28;21848;-72
2023/12/16 01:24:27;;;;;;;13.43;3.17;;;;;;;;;;5024233;28;20182;-72
2023/12/16 01:26:52;;;;;;;12.90;2.95;;;;;;;;;;5006709;28;20202;-72
2023/12/16 01:29:18;;;;;;;15.30;3.05;;;;;;;;;;5009854;28;20185;-72
2023/12/16 01:31:43;;;;;;;15.75;3.10;;;;;;;;;;5025888;28;20232;-72
2023/12/16 01:34:09;;;;;;;13.98;3.72;;;;;;;;;;5024451;28;20769;-72
2023/12/16 01:36:34;;;;;;;19.30;4.28;;;;;;;;;;4991021;28;20531;-72
2023/12/16 01:39:00;;;;;;;20.50;4.18;;;;;;;;;;5007686;28;20645;-72
2023/12/16 01:41:25;;;;;;;16.30;4.40;;;;;;;;;;5023398;28;20189;-72
2023/12/16 01:43:51;;;;;;;12.18;3.22;;;;;;;;;;5024517;28;20661;-72
2023/12/16 01:46:18;;;;;;;15.18;3.47;;;;;;;;;;5006977;28;20251;-72
2023/12/16 01:48:44;;;;;;;17.13;4.13;;;;;;;;;;5024361;28;20207;-71
2023/12/16 01:51:10;;;;;;;14.95;4.38;;;;;;;;;;5027233;28;20217;-72
2023/12/16 01:53:35;;;;;;;13.80;3.63;;;;;;;;;;5004503;28;20206;-72
2023/12/16 01:56:01;;;;;;;15.73;3.83;;;;;;;;;;5025207;28;20194;-72
2023/12/16 01:58:27;;;;;;;20.08;4.13;;;;;;;;;;5025272;28;20718;-72
2023/12/16 02:00:52;;;;;;;17.52;3.63;;;;;;;;;;5025818;28;20190;-72
2023/12/16 02:03:19;;;;;;;16.05;3.88;;;;;;;;;;5007959;28;20182;-72
2023/12/16 02:05:45;;;;;;;12.77;3.10;;;;;;;;;;4991441;28;20197;-72
2023/12/16 02:08:11;;;;;;;12.88;3.17;;;;;;;;;;5022583;28;20506;-72
2023/12/16 02:10:36;;;;;;;18.05;3.45;;;;;;;;;;5027530;28;20186;-72
2023/12/16 02:13:03;;;;;;;19.10;3.95;;;;;;;;;;5024872;28;20284;-72
2023/12/16 02:15:28;;;;;;;14.00;4.07;;;;;;;;;;5026378;28;20186;-72
2023/12/16 02:17:54;;;;;;;13.90;3.70;;;;;;;;;;5026605;28;20209;-72
2023/12/16 02:20:19;;;;;;;12.95;3.63;;;;;;;;;;5023832;28;20572;-72
2023/12/16 02:22:46;;;;;;;11.88;3.63;;;;;;;;;;5009091;28;20201;-72
2023/12/16 02:25:13;;;;;;;19.20;4.30;;;;;;;;;;5009289;28;20185;-72
2023/12/16 02:27:39;;;;;;;16.20;3.80;;;;;;;;;;5024632;28;20240;-71
2023/12/16 02:30:05;;;;;;;19.40;4.65;;;;;;;;;;5024432;28;20253;-72
2023/12/16 02:32:31;;;;;;;16.13;3.95;;;;;;;;;;5025967;28;20434;-71
2023/12/16 02:34:56;;;;;;;15.45;4.30;;;;;;;;;;5006987;28;20186;-71
2023/12/16 02:37:21;;;;;;;17.30;4.53;;;;;;;;;;5026343;28;20564;-71
2023/12/16 02:39:47;;;;;;;18.38;5.25;;;;;;;;;;5024153;28;20264;-71
2023/12/16 02:42:13;;;;;;;23.58;5.88;;;;;;;;;;5007823;28;20333;-72
2023/12/16 02:44:38;;;;;;;21.30;4.80;;;;;;;;;;5022744;28;20224;-72
2023/12/16 02:47:03;;;;;;;22.42;5.68;;;;;;;;;;5006137;28;20189;-71
2023/12/16 02:49:29;;;;;;;19.65;5.88;;;;;;;;;;5008352;28;20190;-71
2023/12/16 02:51:54;;;;;;;16.83;5.90;;;;;;;;;;5026547;28;20182;-72
2023/12/16 02:54:20;;;;;;;21.80;6.18;;;;;;;;;;4989440;28;20276;-72
2023/12/16 02:56:46;;;;;;;18.73;5.57;;;;;;;;;;5024149;28;20219;-71
2023/12/16 02:59:11;;;;;;;22.05;5.18;;;;;;;;;;5000937;28;20261;-71
2023/12/16 03:01:37;;;;;;;20.27;5.40;;;;;;;;;;5023095;28;20186;-71
2023/12/16 03:04:02;;;;;;;20.63;5.18;;;;;;;;;;5024062;28;20273;-71
2023/12/16 03:06:27;;;;;;;20.33;5.13;;;;;;;;;;5022487;28;20194;-71
2023/12/16 03:08:53;;;;;;;23.10;5.90;;;;;;;;;;5024939;28;20258;-72
2023/12/16 03:11:18;;;;;;;20.15;4.72;;;;;;;;;;5024577;28;20261;-72
2023/12/16 03:13:44;;;;;;;19.23;5.85;;;;;;;;;;5023986;28;20322;-71
2023/12/16 03:16:10;;;;;;;15.70;4.72;;;;;;;;;;5007402;28;20602;-71
2023/12/16 03:18:35;;;;;;;16.17;4.17;;;;;;;;;;5022682;28;20205;-71
2023/12/16 03:21:05;;;;;;;21.57;5.77;;;;;;;;;;5026911;28;20186;-72
2023/12/16 03:23:30;;;;;;;19.10;4.77;;;;;;;;;;5023223;28;20193;-72
2023/12/16 03:25:56;;;;;;;19.93;4.23;;;;;;;;;;5006684;28;20293;-72
2023/12/16 03:28:21;;;;;;;17.80;4.70;;;;;;;;;;5021976;28;20198;-72
2023/12/16 03:30:46;;;;;;;15.70;4.63;;;;;;;;;;5025212;28;20665;-72
2023/12/16 03:33:12;;;;;;;12.03;3.83;;;;;;;;;;5025466;28;20696;-72
2023/12/16 03:35:37;;;;;;;15.80;4.63;;;;;;;;;;5022561;28;20224;-72
2023/12/16 03:38:03;;;;;;;15.80;4.10;;;;;;;;;;5007639;28;20201;-73
2023/12/16 03:40:29;;;;;;;15.27;4.20;;;;;;;;;;5007078;28;20274;-72
2023/12/16 03:42:55;;;;;;;12.40;3.50;;;;;;;;;;5025923;28;20676;-72
2023/12/16 03:45:21;;;;;;;16.00;3.90;;;;;;;;;;5026852;28;20217;-71
2023/12/16 03:47:46;;;;;;;12.87;3.70;;;;;;;;;;5009198;28;20198;-71
2023/12/16 03:50:12;;;;;;;19.23;3.53;;;;;;;;;;5029997;28;20194;-72
2023/12/16 03:52:37;;;;;;;17.30;3.50;;;;;;;;;;5010151;28;20695;-72
2023/12/16 03:55:03;;;;;;;23.07;3.77;;;;;;;;;;5028869;28;20663;-71
2023/12/16 03:57:32;;;;;;;19.57;3.33;;;;;;;;;;5024243;28;20190;-71
2023/12/16 03:59:58;;;;;;;18.97;3.53;;;;;;;;;;5029335;28;20201;-71
2023/12/16 04:02:23;;;;;;;15.07;3.80;;;;;;;;;;5028216;28;20570;-71
2023/12/16 04:04:49;;;;;;;17.40;3.13;;;;;;;;;;5025058;28;20186;-71
2023/12/16 04:07:14;;;;;;;17.23;3.63;;;;;;;;;;5009237;28;20559;-71
2023/12/16 04:09:40;;;;;;;12.63;2.83;;;;;;;;;;5024909;28;20218;-71
2023/12/16 04:12:06;;;;;;;16.40;3.57;;;;;;;;;;5027447;28;20226;-71
2023/12/16 04:14:39;;;;;;;13.47;2.73;;;;;;;;;;5027327;28;20672;-71
2023/12/16 04:17:08;;;;;;;15.40;2.83;;;;;;;;;;5006664;28;20697;-71
2023/12/16 04:19:33;;;;;;;13.50;3.57;;;;;;;;;;5028177;28;20209;-71
2023/12/16 04:21:59;;;;;;;12.97;3.23;;;;;;;;;;5027921;28;20186;-71
2023/12/16 04:24:24;;;;;;;18.50;3.47;;;;;;;;;;5025716;28;20195;-71
2023/12/16 04:26:49;;;;;;;13.47;3.33;;;;;;;;;;5027679;28;20668;-71
2023/12/16 04:29:15;;;;;;;21.33;3.50;;;;;;;;;;5030117;28;20560;-72
2023/12/16 04:31:41;;;;;;;11.02;3.42;;;;;;;;;;5025647;28;20202;-71
2023/12/16 04:34:06;;;;;;;19.27;3.40;;;;;;;;;;5008854;28;20222;-71
2023/12/16 04:36:32;;;;;;;16.98;4.60;;;;;;;;;;5023364;28;20240;-72
2023/12/16 04:38:57;;;;;;;21.60;3.70;;;;;;;;;;5009673;28;20182;-72
2023/12/16 04:41:23;;;;;;;19.45;3.75;;;;;;;;;;4993237;28;20190;-71
2023/12/16 04:43:48;;;;;;;11.50;3.60;;;;;;;;;;5024767;28;20269;-71
2023/12/16 04:46:19;;;;;;;16.42;3.88;;;;;;;;;;5004542;28;20285;-72
2023/12/16 04:48:45;;;;;;;15.43;4.57;;;;;;;;;;5010281;28;20190;-71
2023/12/16 04:51:10;;;;;;;15.30;3.92;;;;;;;;;;5026257;28;20339;-72
2023/12/16 04:53:36;;;;;;;16.87;3.97;;;;;;;;;;5026961;28;20211;-72
2023/12/16 04:56:01;;;;;;;17.07;4.20;;;;;;;;;;5008120;28;20257;-72
2023/12/16 04:58:28;;;;;;;19.57;4.53;;;;;;;;;;5027498;28;20190;-72
2023/12/16 05:00:54;;;;;;;18.08;4.55;;;;;;;;;;5026543;28;20194;-72
2023/12/16 05:03:19;;;;;;;18.93;4.53;;;;;;;;;;5026936;28;20472;-72
2023/12/16 05:05:44;;;;;;;15.63;4.50;;;;;;;;;;5025499;28;20206;-72
2023/12/16 05:08:11;;;;;;;13.93;4.37;;;;;;;;;;5008967;28;20201;-72
2023/12/16 05:10:37;;;;;;;16.23;4.57;;;;;;;;;;5028781;28;20182;-73
2023/12/16 05:13:02;;;;;;;19.27;4.90;;;;;;;;;;5026444;28;20237;-73
2023/12/16 05:15:28;;;;;;;17.47;4.63;;;;;;;;;;5026611;28;20186;-73
2023/12/16 05:17:53;;;;;;;17.37;4.50;;;;;;;;;;5027655;28;20304;-72
2023/12/16 05:20:18;;;;;;;18.83;5.10;;;;;;;;;;5010478;28;20527;-73
2023/12/16 05:22:44;;;;;;;17.83;5.00;;;;;;;;;;5028007;28;21050;-72
2023/12/16 05:25:10;;;;;;;18.40;4.80;;;;;;;;;;5025438;28;20197;-73
2023/12/16 05:27:35;;;;;;;16.80;5.07;;;;;;;;;;5027074;28;20281;-73
2023/12/16 05:30:02;;;;;;;15.57;4.37;;;;;;;;;;5028962;28;20375;-72
2023/12/16 05:32:27;;;;;;;20.05;5.53;;;;;;;;;;5027413;28;20186;-73
2023/12/16 05:34:54;;;;;;;22.60;5.93;;;;;;;;;;5025666;28;20267;-72
2023/12/16 05:37:19;;;;;;;22.20;5.82;;;;;;;;;;5005185;28;20190;-73
2023/12/16 05:39:45;;;;;;;17.70;5.87;;;;;;;;;;5023134;28;20664;-72
2023/12/16 05:42:11;;;;;;;18.13;5.68;;;;;;;;;;5013882;28;20194;-72
2023/12/16 05:44:36;;;;;;;19.30;6.00;;;;;;;;;;5006536;28;20755;-72
2023/12/16 05:47:02;;;;;;;24.30;5.83;;;;;;;;;;5017429;28;20221;-72
2023/12/16 05:49:27;;;;;;;19.43;6.60;;;;;;;;;;5020627;28;20186;-72
2023/12/16 05:51:54;;;;;;;23.63;7.00;;;;;;;;;;5023258;28;20273;-73
2023/12/16 05:54:19;;;;;;;18.77;5.83;;;;;;;;;;5008732;28;20222;-72
2023/12/16 05:56:45;;;;;;;16.53;6.00;;;;;;;;;;5024514;28;20208;-72
2023/12/16 05:59:10;;;;;;;23.55;6.18;;;;;;;;;;5008029;28;20264;-73
2023/12/16 06:01:36;;;;;;;24.90;6.82;;;;;;;;;;5025469;28;20668;-72
2023/12/16 06:04:01;;;;;;;22.93;6.30;;;;;;;;;;5026847;28;20226;-73
2023/12/16 06:06:27;;;;;;;23.17;6.40;;;;;;;;;;5025762;28;20197;-73
2023/12/16 06:08:53;;;;;;;22.20;6.97;;;;;;;;;;5022128;28;20269;-73
2023/12/16 06:11:21;;;;;;;18.20;5.80;;;;;;;;;;5021268;28;20235;-72
2023/12/16 06:13:47;;;;;;;15.60;6.03;;;;;;;;;;5008692;28;20213;-73
2023/12/16 06:16:16;;;;;;;19.27;6.80;;;;;;;;;;5024261;28;20216;-72
2023/12/16 06:18:41;;;;;;;16.53;6.07;;;;;;;;;;5022384;28;20221;-73
2023/12/16 06:21:07;;;;;;;17.67;5.97;;;;;;;;;;5027343;28;20715;-72
2023/12/16 06:23:32;;;;;;;21.93;6.40;;;;;;;;;;5023288;28;20642;-72
2023/12/16 06:25:57;;;;;;;15.83;5.63;;;;;;;;;;5007835;28;20304;-72
2023/12/16 06:28:23;;;;;;;21.83;6.30;;;;;;;;;;5025686;28;20190;-72
2023/12/16 06:30:48;;;;;;;24.23;6.07;;;;;;;;;;5025759;28;20213;-72
2023/12/16 06:33:14;;;;;;;19.47;5.93;;;;;;;;;;5022095;28;20233;-72
2023/12/16 06:35:39;;;;;;;19.73;7.13;;;;;;;;;;5013376;28;20217;-73
2023/12/16 06:38:04;;;;;;;21.73;6.07;;;;;;;;;;5023773;28;20194;-72
2023/12/16 06:40:31;;;;;;;16.43;5.80;;;;;;;;;;5020329;28;20201;-72
2023/12/16 06:42:57;;;;;;;20.43;5.90;;;;;;;;;;5023536;28;20197;-73
2023/12/16 06:45:22;;;;;;;18.43;5.87;;;;;;;;;;5022549;28;20194;-73
2023/12/16 06:47:48;;;;;;;31.30;6.43;;;;;;;;;;5021644;28;20202;-73
2023/12/16 06:50:14;;;;;;;17.27;6.03;;;;;;;;;;5022376;28;20201;-73
2023/12/16 06:52:39;;;;;;;20.10;6.27;;;;;;;;;;5024102;28;20534;-73
2023/12/16 06:55:05;;;;;;;18.60;5.97;;;;;;;;;;5024700;28;20201;-73
2023/12/16 06:57:30;;;;;;;21.33;6.70;;;;;;;;;;5023678;28;20194;-72
2023/12/16 06:59:56;;;;;;;22.13;6.47;;;;;;;;;;5007949;28;20202;-73
2023/12/16 07:02:21;;;;;;;25.00;7.20;;;;;;;;;;5009491;28;20190;-73
2023/12/16 07:04:46;;;;;;;20.47;5.67;;;;;;;;;;5006443;28;20236;-73
2023/12/16 07:07:12;;;;;;;20.17;6.37;;;;;;;;;;5024595;28;20285;-72
2023/12/16 07:09:39;;;;;;;20.73;6.63;;;;;;;;;;5022392;28;20197;-73
2023/12/16 07:12:05;;;;;;;18.00;5.77;;;;;;;;;;5026502;28;20670;-73
2023/12/16 07:14:33;;;;;;;23.33;6.70;;;;;;;;;;5006235;28;20711;-72
2023/12/16 07:16:59;;;;;;;18.30;6.20;;;;;;;;;;5022555;28;20198;-72
2023/12/16 07:19:24;;;;;;;19.27;5.80;;;;;;;;;;5025055;28;20229;-73
2023/12/16 07:21:50;;;;;;;28.50;7.57;;;;;;;;;;5022921;28;20197;-73
2023/12/16 07:24:15;;;;;;;20.77;5.80;;;;;;;;;;5006019;28;20190;-73
2023/12/16 07:26:41;;;;;;;23.10;6.10;;;;;;;;;;5024365;28;20349;-72
2023/12/16 07:29:06;;;;;;;21.23;6.07;;;;;;;;;;5026693;28;20190;-73
2023/12/16 07:31:32;;;;;;;24.03;5.53;;;;;;;;;;5009015;28;20197;-72
2023/12/16 07:33:57;;;;;;;21.93;6.53;;;;;;;;;;5023326;28;20218;-72
2023/12/16 07:36:22;;;;;;;19.73;5.47;;;;;;;;;;5021664;28;20202;-71
2023/12/16 07:38:48;;;;;;;20.33;6.53;;;;;;;;;;5020093;28;20202;-72
2023/12/16 07:41:13;;;;;;;18.27;6.07;;;;;;;;;;5016585;28;20203;-72
2023/12/16 07:43:39;;;;;;;25.03;6.47;;;;;;;;;;5020714;28;20197;-72
2023/12/16 07:46:05;;;;;;;21.93;5.93;;;;;;;;;;5026476;28;20206;-71
2023/12/16 07:48:30;;;;;;;25.47;7.60;;;;;;;;;;5018051;28;20198;-73
2023/12/16 07:50:56;;;;;;;20.47;7.03;;;;;;;;;;5003709;28;20244;-72
2023/12/16 07:53:21;;;;;;;18.43;5.40;;;;;;;;;;4993413;28;20651;-71
2023/12/16 07:55:48;;;;;;;19.40;6.13;;;;;;;;;;5022979;28;20205;-72
2023/12/16 07:58:14;;;;;;;23.33;6.77;;;;;;;;;;5019901;28;20240;-71
2023/12/16 08:00:40;;;;;;;18.97;6.53;;;;;;;;;;5009580;28;20194;-71
2023/12/16 08:03:05;;;;;;;22.70;6.90;;;;;;;;;;5002418;28;20191;-71
2023/12/16 08:05:31;;;;;;;24.47;6.27;;;;;;;;;;4997564;28;20548;-71
2023/12/16 08:07:56;;;;;;;24.80;6.63;;;;;;;;;;5025202;28;20183;-72
2023/12/16 08:10:22;;;;;;;23.90;6.57;;;;;;;;;;5002912;28;20237;-72
2023/12/16 08:12:47;;;;;;;22.37;6.03;;;;;;;;;;5027688;28;20230;-71
2023/12/16 08:15:13;;;;;;;19.57;5.90;;;;;;;;;;5038965;28;20190;-72
2023/12/16 08:17:38;;;;;;;27.37;6.53;;;;;;;;;;5034818;28;20193;-72
2023/12/16 08:20:05;;;;;;;18.73;5.83;;;;;;;;;;5039226;28;20213;-72
2023/12/16 08:22:31;;;;;;;18.53;6.23;;;;;;;;;;5038956;28;20676;-72
2023/12/16 08:24:57;;;;;;;29.77;7.03;;;;;;;;;;5042710;28;20173;-72
2023/12/16 08:27:23;;;;;;;20.73;6.40;;;;;;;;;;5037037;28;20190;-72
2023/12/16 08:29:49;;;;;;;25.77;6.10;;;;;;;;;;5048280;28;20245;-72
2023/12/16 08:32:15;;;;;;;25.57;6.20;;;;;;;;;;5043972;28;20262;-73
2023/12/16 08:34:40;;;;;;;19.00;5.77;;;;;;;;;;5043117;28;20213;-72
2023/12/16 08:37:06;;;;;;;27.37;6.97;;;;;;;;;;5042401;28;20403;-72
2023/12/16 08:39:31;;;;;;;22.53;5.70;;;;;;;;;;5038079;28;20198;-72
2023/12/16 08:41:56;;;;;;;27.83;6.10;;;;;;;;;;5050230;28;20193;-72
2023/12/16 08:44:22;;;;;;;22.07;5.93;;;;;;;;;;5033473;28;20451;-72
2023/12/16 08:46:47;;;;;;;29.83;6.43;;;;;;;;;;5034102;28;20190;-72
2023/12/16 08:49:13;;;;;;;26.57;5.97;;;;;;;;;;5040491;28;20612;-72
2023/12/16 08:51:38;;;;;;;28.53;6.60;;;;;;;;;;5044991;28;20281;-72
2023/12/16 08:54:04;;;;;;;22.80;6.37;;;;;;;;;;5049584;28;20540;-72
2023/12/16 08:56:29;;;;;;;22.83;6.57;;;;;;;;;;5047720;28;20553;-72
2023/12/16 08:58:55;;;;;;;31.40;6.23;;;;;;;;;;5043012;28;20193;-72
2023/12/16 09:01:20;;;;;;;24.73;6.80;;;;;;;;;;5047346;28;20195;-72
2023/12/16 09:03:46;;;;;;;18.47;6.30;;;;;;;;;;5051028;28;20691;-72
2023/12/16 09:06:12;;;;;;;24.30;6.30;;;;;;;;;;5049435;28;20602;-72
2023/12/16 09:08:37;;;;;;;19.87;5.67;;;;;;;;;;5044505;28;20195;-72
2023/12/16 09:11:03;;;;;;;22.00;5.90;;;;;;;;;;5038336;28;20213;-71
2023/12/16 09:13:29;;;;;;;21.42;6.28;;;;;;;;;;4999576;28;20222;-72
2023/12/16 09:15:54;;;;;;;22.30;5.63;;;;;;;;;;4993985;28;20248;-71
2023/12/16 09:18:20;;;;;;;20.27;6.20;;;;;;;;;;5024012;28;20293;-72
2023/12/16 09:20:45;;;;;;;18.73;5.73;;;;;;;;;;5005498;28;20602;-72
2023/12/16 09:23:11;;;;;;;24.63;6.20;;;;;;;;;;5018498;28;20186;-72
2023/12/16 09:25:36;;;;;;;17.92;5.75;;;;;;;;;;5017623;28;20187;-71
2023/12/16 09:28:01;;;;;;;15.88;5.00;;;;;;;;;;4999745;28;20190;-72
2023/12/16 09:30:27;;;;;;;22.88;5.93;;;;;;;;;;5000598;28;20220;-71
2023/12/16 09:32:52;;;;;;;22.42;5.40;;;;;;;;;;5027940;28;20190;-72
2023/12/16 09:35:18;;;;;;;26.17;6.47;;;;;;;;;;5006518;28;20198;-71
2023/12/16 09:37:44;;;;;;;25.42;5.35;;;;;;;;;;5030277;28;20424;-72
2023/12/16 09:40:10;;;;;;;18.80;5.67;;;;;;;;;;5018501;28;20787;-71
2023/12/16 09:42:38;;;;;;;22.67;6.17;;;;;;;;;;5028103;28;20193;-72
2023/12/16 09:45:04;;;;;;;17.13;5.07;;;;;;;;;;5029039;28;20190;-72
2023/12/16 09:47:30;;;;;;;23.60;5.38;;;;;;;;;;5019079;28;20178;-72
2023/12/16 09:50:00;;;;;;;23.20;5.65;;;;;;;;;;5014237;28;20217;-71
2023/12/16 09:52:27;;;;;;;20.92;5.78;;;;;;;;;;4990749;28;20198;-72
2023/12/16 09:54:52;;;;;;;21.95;5.72;;;;;;;;;;5018680;28;20542;-72
2023/12/16 09:57:20;;;;;;;19.13;5.43;;;;;;;;;;5008877;28;20318;-71
2023/12/16 09:59:46;;;;;;;14.75;5.25;;;;;;;;;;5026428;28;20186;-71
2023/12/16 10:02:23;;;;;;;20.83;5.72;;;;;;;;;;5022128;28;20263;-71
2023/12/16 10:04:51;;;;;;;22.67;5.47;;;;;;;;;;5021411;28;20182;-72
2023/12/16 10:07:17;;;;;;;23.95;5.10;;;;;;;;;;5029724;28;20178;-73
2023/12/16 10:09:42;;;;;;;23.25;5.72;;;;;;;;;;5003669;28;20191;-72
2023/12/16 10:12:09;;;;;;;19.15;5.30;;;;;;;;;;5025216;28;20230;-72
2023/12/16 10:14:51;;;;;;;21.33;5.57;;;;;;;;;;5004968;28;20218;-73
2023/12/16 10:17:17;;;;;;;18.33;5.78;;;;;;;;;;5023568;28;20186;-72
2023/12/16 10:19:44;;;;;;;22.63;5.47;;;;;;;;;;5020651;28;20206;-72
2023/12/16 10:22:12;;;;;;;22.77;5.20;;;;;;;;;;5021301;28;20190;-72
2023/12/16 10:24:37;;;;;;;19.58;5.78;;;;;;;;;;5018310;28;20220;-73
2023/12/16 10:27:04;;;;;;;28.15;6.20;;;;;;;;;;5019792;28;20265;-73
2023/12/16 10:29:32;;;;;;;22.98;6.22;;;;;;;;;;5018458;28;20737;-73
2023/12/16 10:31:58;;;;;;;28.02;6.95;;;;;;;;;;5027341;28;20190;-72
2023/12/16 10:34:26;;;;;;;25.33;5.72;;;;;;;;;;5027078;28;20275;-72
2023/12/16 10:36:52;;;;;;;26.48;6.68;;;;;;;;;;5004740;28;20244;-72
2023/12/16 10:39:17;;;;;;;27.85;6.75;;;;;;;;;;5028926;28;20209;-73
2023/12/16 10:41:43;;;;;;;25.80;6.93;;;;;;;;;;5022655;28;20268;-73
2023/12/16 10:44:08;;;;;;;28.13;7.60;;;;;;;;;;5027201;28;20194;-72
2023/12/16 10:46:36;;;;;;;22.63;7.28;;;;;;;;;;5028427;28;20646;-72
2023/12/16 10:49:04;;;;;;;20.73;6.45;;;;;;;;;;4995595;28;20186;-73
2023/12/16 10:51:36;;;;;;;27.20;7.78;;;;;;;;;;5025414;28;20186;-73
2023/12/16 10:54:16;;;;;;;38.30;8.18;;;;;;;;;;5021271;28;20282;-72
2023/12/16 10:56:51;;;;;;;34.85;8.20;;;;;;;;;;5021879;28;20271;-72
2023/12/16 10:59:30;;;;;;;31.30;8.52;;;;;;;;;;5013017;28;20261;-72
2023/12/16 11:01:57;;;;;;;26.92;8.32;;;;;;;;;;4982246;28;20823;-73
2023/12/16 11:04:32;;;;;;;24.17;7.28;;;;;;;;;;5018182;28;20190;-72
2023/12/16 11:07:10;;;;;;;29.67;8.52;;;;;;;;;;5026677;28;20201;-72
2023/12/16 11:09:36;;;;;;;30.25;8.45;;;;;;;;;;5027502;28;20174;-72
2023/12/16 11:12:03;;;;;;;26.50;8.77;;;;;;;;;;5022494;28;20229;-72
2023/12/16 11:14:31;;;;;;;28.13;10.18;;;;;;;;;;5033465;28;20249;-73
2023/12/16 11:17:15;;;;;;;26.48;9.52;;;;;;;;;;5026913;28;20626;-72
2023/12/16 11:19:58;;;;;;;32.17;10.13;;;;;;;;;;5044013;28;20213;-72
2023/12/16 11:22:24;;;;;;;23.77;9.88;;;;;;;;;;5048773;28;20204;-72
2023/12/16 11:24:52;;;;;;;33.05;10.07;;;;;;;;;;5049520;28;20551;-72
2023/12/16 11:27:21;;;;;;;36.15;11.30;;;;;;;;;;5049516;28;20224;-73
2023/12/16 11:29:47;;;;;;;30.70;11.77;;;;;;;;;;5047561;28;20193;-72
2023/12/16 11:32:12;;;;;;;31.23;11.55;;;;;;;;;;5045234;28;20211;-72
2023/12/16 11:34:47;;;;;;;33.03;11.55;;;;;;;;;;5029612;28;20263;-73
2023/12/16 11:37:12;;;;;;;30.05;10.68;;;;;;;;;;5025420;28;20196;-72
2023/12/16 11:39:44;;;;;;;38.45;11.70;;;;;;;;;;5039618;28;20197;-72
2023/12/16 11:42:11;;;;;;;35.50;12.52;;;;;;;;;;5026564;28;20205;-72
2023/12/16 11:44:55;;;;;;;32.80;11.38;;;;;;;;;;5032777;28;20215;-72
2023/12/16 11:47:25;;;;;;;37.00;12.10;;;;;;;;;;5042536;28;20287;-72
2023/12/16 11:49:53;;;;;;;34.00;12.15;;;;;;;;;;5041255;28;20230;-73
2023/12/16 11:52:20;;;;;;;30.70;12.00;;;;;;;;;;5042763;28;20225;-72
2023/12/16 11:54:58;;;;;;;37.78;12.38;;;;;;;;;;5035641;28;20323;-72
2023/12/16 11:57:25;;;;;;;30.67;13.40;;;;;;;;;;5047171;28;21356;-71
2023/12/16 11:59:51;;;;;;;39.70;12.85;;;;;;;;;;5027374;28;20381;-72
2023/12/16 12:02:18;;;;;;;39.17;12.88;;;;;;;;;;5032559;28;20190;-72
2023/12/16 12:04:44;;;;;;;31.90;13.32;;;;;;;;;;5044472;28;20677;-72
2023/12/16 12:07:09;;;;;;;35.88;12.48;;;;;;;;;;5048847;28;20189;-72
2023/12/16 12:09:35;;;;;;;41.33;14.32;;;;;;;;;;5050710;28;20197;-72
2023/12/16 12:12:04;;;;;;;36.17;13.75;;;;;;;;;;5050356;28;20263;-71
2023/12/16 12:14:30;;;;;;;37.78;13.98;;;;;;;;;;5050328;28;20221;-72
2023/12/16 12:16:55;;;;;;;41.17;15.68;;;;;;;;;;5048496;28;20561;-72
2023/12/16 12:19:21;;;;;;;45.20;14.30;;;;;;;;;;5032803;28;20217;-73
2023/12/16 12:21:47;;;;;;;32.95;14.02;;;;;;;;;;5044344;28;20197;-72
2023/12/16 12:24:13;;;;;;;41.25;16.52;;;;;;;;;;5041243;28;21043;-71
2023/12/16 12:26:38;;;;;;;49.17;16.35;;;;;;;;;;5051447;28;20250;-71
2023/12/16 12:29:04;;;;;;;44.50;16.65;;;;;;;;;;5050832;28;20189;-71
2023/12/16 12:31:30;;;;;;;44.28;15.65;;;;;;;;;;5041503;28;20197;-71
2023/12/16 12:33:56;;;;;;;41.78;16.05;;;;;;;;;;5038751;28;20228;-71
2023/12/16 12:36:21;;;;;;;43.58;16.17;;;;;;;;;;5049309;28;20185;-71
2023/12/16 12:38:54;;;;;;;41.20;16.10;;;;;;;;;;5032698;28;20723;-71
2023/12/16 12:41:19;;;;;;;40.60;14.55;;;;;;;;;;5024817;28;20289;-72
2023/12/16 12:43:45;;;;;;;36.45;15.43;;;;;;;;;;5042080;28;20320;-72
2023/12/16 12:46:13;;;;;;;45.38;16.92;;;;;;;;;;5032344;28;20262;-72
2023/12/16 12:48:49;;;;;;;47.53;16.05;;;;;;;;;;5037344;28;20296;-72
2023/12/16 12:51:14;;;;;;;47.22;16.92;;;;;;;;;;5050481;28;20193;-72
2023/12/16 12:53:40;;;;;;;49.72;16.27;;;;;;;;;;5048629;28;20201;-72
2023/12/16 12:56:06;;;;;;;43.90;16.67;;;;;;;;;;5047878;28;20193;-73
2023/12/16 12:58:33;;;;;;;44.10;17.45;;;;;;;;;;5031262;28;20189;-73
2023/12/16 13:01:03;;;;;;;38.53;17.25;;;;;;;;;;5045222;28;20552;-72
2023/12/16 13:03:31;;;;;;;44.78;17.58;;;;;;;;;;5043222;28;20206;-72
2023/12/16 13:06:00;;;;;;;47.47;16.55;;;;;;;;;;5045584;28;20624;-72
2023/12/16 13:08:26;;;;;;;40.15;17.73;;;;;;;;;;5050714;28;20185;-72
2023/12/16 13:10:51;;;;;;;49.17;18.80;;;;;;;;;;5049563;28;20193;-72
2023/12/16 13:13:19;;;;;;;44.65;17.42;;;;;;;;;;5030540;28;20304;-72
2023/12/16 13:15:44;;;;;;;47.72;17.75;;;;;;;;;;5019400;28;20195;-72
2023/12/16 13:18:10;;;;;;;42.42;16.95;;;;;;;;;;5015795;28;20757;-72
2023/12/16 13:20:38;;;;;;;45.20;17.45;;;;;;;;;;5017023;28;20255;-72
2023/12/16 13:23:03;;;;;;;34.75;16.73;;;;;;;;;;5025928;28;20210;-72
2023/12/16 13:25:28;;;;;;;41.70;16.77;;;;;;;;;;4999303;28;20276;-72
2023/12/16 13:27:54;;;;;;;40.95;17.00;;;;;;;;;;5030854;28;20539;-72
2023/12/16 13:30:19;;;;;;;49.53;17.13;;;;;;;;;;5015729;28;20190;-72
2023/12/16 13:32:45;;;;;;;37.40;17.45;;;;;;;;;;5004156;28;20253;-72
2023/12/16 13:35:11;;;;;;;51.72;19.00;;;;;;;;;;5022477;28;20230;-72
2023/12/16 13:37:36;;;;;;;40.03;17.20;;;;;;;;;;5012027;28;20186;-72
2023/12/16 13:40:05;;;;;;;33.33;16.80;;;;;;;;;;5021003;28;20265;-72
2023/12/16 13:42:31;;;;;;;41.20;17.42;;;;;;;;;;5026633;28;20557;-73
2023/12/16 13:44:57;;;;;;;44.22;17.85;;;;;;;;;;5019709;28;20208;-73
2023/12/16 13:47:22;;;;;;;37.22;17.75;;;;;;;;;;5010200;28;20194;-73
2023/12/16 13:49:48;;;;;;;42.85;18.05;;;;;;;;;;5000307;28;20544;-72
2023/12/16 13:52:13;;;;;;;34.05;18.35;;;;;;;;;;5012927;28;20193;-73
2023/12/16 13:54:38;;;;;;;41.85;17.60;;;;;;;;;;5009859;28;20211;-72
2023/12/16 13:57:05;;;;;;;43.90;18.55;;;;;;;;;;5011715;28;20191;-72
2023/12/16 13:59:33;;;;;;;44.75;17.95;;;;;;;;;;4999825;28;20187;-72
2023/12/16 14:02:00;;;;;;;38.65;18.23;;;;;;;;;;5023083;28;20190;-72
2023/12/16 14:04:25;;;;;;;42.90;18.65;;;;;;;;;;5000527;28;20598;-72
2023/12/16 14:06:51;;;;;;;36.03;18.60;;;;;;;;;;4996082;28;20201;-72
2023/12/16 14:09:17;;;;;;;34.75;17.60;;;;;;;;;;5002014;28;20208;-72
2023/12/16 14:11:44;;;;;;;42.13;18.17;;;;;;;;;;5011312;28;20232;-72
2023/12/16 14:14:10;;;;;;;37.80;18.73;;;;;;;;;;5005924;28;20288;-72
2023/12/16 14:16:36;;;;;;;36.55;18.77;;;;;;;;;;5005380;28;20194;-73
2023/12/16 14:19:01;;;;;;;33.80;17.70;;;;;;;;;;5005897;28;21213;-72
2023/12/16 14:21:26;;;;;;;29.83;17.35;;;;;;;;;;5009698;28;20630;-74